Time;durP1;ratioP1;P1;durP2;ratioP2;P2;SDS_P1;SDS_P2;PMS_P1;PMS_P2;Temp;Humidity;BMP_temperature;BMP_pressure;BME280_temperature;BME280_humidity;BME280_pressure;Samples;Min_cycle;Max_cycle;Signal;HPM_P1;HPM_P2
2022/07/03 00:00:26;;;;;;;4.68;1.00;;;;;;;;;;5118249;27;20483;-74
2022/07/03 00:02:52;;;;;;;2.90;1.15;;;;;;;;;;5135917;27;20066;-74
2022/07/03 00:05:18;;;;;;;1.45;0.88;;;;;;;;;;5117977;27;20039;-74
2022/07/03 00:07:43;;;;;;;0.77;0.77;;;;;;;;;;5136094;27;20035;-74
2022/07/03 00:10:09;;;;;;;1.40;1.10;;;;;;;;;;5136482;27;20031;-75
2022/07/03 00:12:35;;;;;;;3.90;1.15;;;;;;;;;;5135059;27;20515;-74
2022/07/03 00:15:00;;;;;;;1.40;0.90;;;;;;;;;;5135208;27;20488;-74
2022/07/03 00:17:26;;;;;;;2.00;0.98;;;;;;;;;;5134827;27;20035;-74
2022/07/03 00:19:53;;;;;;;3.40;1.00;;;;;;;;;;5117297;27;20512;-74
2022/07/03 00:22:20;;;;;;;1.27;0.93;;;;;;;;;;5117748;27;20027;-74
2022/07/03 00:24:51;;;;;;;2.13;1.00;;;;;;;;;;5135982;27;20099;-74
2022/07/03 00:27:18;;;;;;;2.53;0.85;;;;;;;;;;5135936;27;20042;-74
2022/07/03 00:29:45;;;;;;;2.15;1.00;;;;;;;;;;5134611;27;20557;-73
2022/07/03 00:32:12;;;;;;;1.50;0.95;;;;;;;;;;5134272;27;20076;-74
2022/07/03 00:34:39;;;;;;;1.67;1.08;;;;;;;;;;5134863;27;20035;-74
2022/07/03 00:37:08;;;;;;;1.27;1.00;;;;;;;;;;5116863;27;20512;-74
2022/07/03 00:39:38;;;;;;;3.17;0.90;;;;;;;;;;5134290;27;20038;-74
2022/07/03 00:42:05;;;;;;;2.67;1.10;;;;;;;;;;5117295;27;20031;-74
2022/07/03 00:44:35;;;;;;;1.83;1.02;;;;;;;;;;5134837;27;20045;-75
2022/07/03 00:47:03;;;;;;;4.88;1.02;;;;;;;;;;5134990;27;20038;-74
2022/07/03 00:49:31;;;;;;;3.25;0.85;;;;;;;;;;5135662;27;20031;-74
2022/07/03 00:52:00;;;;;;;1.08;0.93;;;;;;;;;;5134493;27;20482;-75
2022/07/03 00:54:26;;;;;;;3.33;1.20;;;;;;;;;;5116906;27;20042;-74
2022/07/03 00:56:54;;;;;;;2.17;1.20;;;;;;;;;;5135240;27;20042;-75
2022/07/03 00:59:20;;;;;;;1.58;0.90;;;;;;;;;;5134284;27;20134;-75
2022/07/03 01:01:51;;;;;;;0.98;0.82;;;;;;;;;;5117481;27;20035;-74
2022/07/03 01:04:39;;;;;;;5.18;1.08;;;;;;;;;;5133306;27;20045;-75
2022/07/03 01:07:18;;;;;;;4.10;1.00;;;;;;;;;;5116445;27;20038;-74
2022/07/03 01:10:07;;;;;;;1.92;1.20;;;;;;;;;;5135227;27;20689;-74
2022/07/03 01:12:55;;;;;;;6.72;1.30;;;;;;;;;;5134874;27;20027;-74
2022/07/03 01:15:43;;;;;;;2.17;1.17;;;;;;;;;;5118124;27;20573;-74
2022/07/03 01:18:28;;;;;;;4.28;1.27;;;;;;;;;;5132900;27;20051;-74
2022/07/03 01:21:05;;;;;;;1.05;1.00;;;;;;;;;;5134500;27;20038;-74
2022/07/03 01:24:00;;;;;;;1.17;1.08;;;;;;;;;;5116374;27;20031;-74
2022/07/03 01:26:28;;;;;;;1.35;1.10;;;;;;;;;;5135200;27;20473;-74
2022/07/03 01:28:58;;;;;;;1.30;1.20;;;;;;;;;;5116378;27;20031;-74
2022/07/03 01:31:25;;;;;;;3.60;1.13;;;;;;;;;;5116751;27;20023;-74
2022/07/03 01:33:51;;;;;;;4.90;1.10;;;;;;;;;;5116353;27;20321;-74
2022/07/03 01:36:21;;;;;;;2.03;1.00;;;;;;;;;;5142462;27;20046;-74
2022/07/03 01:38:50;;;;;;;5.85;1.25;;;;;;;;;;5153767;27;20056;-74
2022/07/03 01:41:16;;;;;;;2.22;1.10;;;;;;;;;;5155324;27;20086;-74
2022/07/03 01:43:47;;;;;;;1.70;1.20;;;;;;;;;;5136625;27;20514;-74
2022/07/03 01:46:14;;;;;;;4.53;1.20;;;;;;;;;;5155210;27;20455;-74
2022/07/03 01:48:43;;;;;;;2.00;1.42;;;;;;;;;;5155111;27;20054;-73
2022/07/03 01:51:14;;;;;;;0.90;0.90;;;;;;;;;;5136013;27;20417;-74
2022/07/03 01:53:46;;;;;;;3.78;1.20;;;;;;;;;;5136486;27;20068;-74
2022/07/03 01:56:12;;;;;;;1.38;1.00;;;;;;;;;;5153618;27;20044;-74
2022/07/03 01:58:38;;;;;;;3.42;1.27;;;;;;;;;;5136279;27;20027;-74
2022/07/03 02:01:29;;;;;;;4.13;1.35;;;;;;;;;;5153101;27;20529;-73
2022/07/03 02:04:03;;;;;;;3.28;1.15;;;;;;;;;;5155149;27;20038;-74
2022/07/03 02:06:39;;;;;;;1.35;1.10;;;;;;;;;;5133911;27;20035;-73
2022/07/03 02:09:06;;;;;;;1.35;1.25;;;;;;;;;;5116008;27;20031;-74
2022/07/03 02:11:40;;;;;;;1.42;1.27;;;;;;;;;;5134368;27;20038;-74
2022/07/03 02:14:11;;;;;;;2.13;1.20;;;;;;;;;;5132340;27;20027;-74
2022/07/03 02:17:08;;;;;;;2.58;1.40;;;;;;;;;;5115734;27;20522;-74
2022/07/03 02:20:02;;;;;;;2.42;1.42;;;;;;;;;;5132512;27;20133;-74
2022/07/03 02:22:33;;;;;;;4.60;1.38;;;;;;;;;;5134246;27;20154;-74
2022/07/03 02:25:11;;;;;;;4.45;1.38;;;;;;;;;;5134297;27;20035;-74
2022/07/03 02:28:02;;;;;;;5.22;1.20;;;;;;;;;;5132962;27;20035;-74
2022/07/03 02:30:28;;;;;;;1.67;1.30;;;;;;;;;;5115420;27;20500;-74
2022/07/03 02:32:59;;;;;;;1.38;1.10;;;;;;;;;;5115727;28;20453;-74
2022/07/03 02:35:32;;;;;;;1.80;1.20;;;;;;;;;;5131944;27;20039;-74
2022/07/03 02:38:19;;;;;;;1.48;1.20;;;;;;;;;;5115321;28;20118;-74
2022/07/03 02:41:00;;;;;;;1.42;1.20;;;;;;;;;;5133896;27;20035;-74
2022/07/03 02:43:41;;;;;;;1.27;1.10;;;;;;;;;;5133336;27;20031;-74
2022/07/03 02:46:50;;;;;;;1.17;1.08;;;;;;;;;;5133865;27;20114;-74
2022/07/03 02:49:15;;;;;;;1.58;1.20;;;;;;;;;;5133622;27;20061;-74
2022/07/03 02:51:59;;;;;;;1.50;1.30;;;;;;;;;;5136699;27;20070;-74
2022/07/03 02:54:25;;;;;;;1.55;1.40;;;;;;;;;;5136952;27;20441;-74
2022/07/03 02:57:07;;;;;;;6.50;1.50;;;;;;;;;;5137279;27;20449;-74
2022/07/03 02:59:46;;;;;;;4.30;1.30;;;;;;;;;;5119438;27;20033;-73
2022/07/03 03:02:26;;;;;;;2.38;1.38;;;;;;;;;;5137735;27;20039;-74
2022/07/03 03:05:03;;;;;;;2.00;1.45;;;;;;;;;;5136986;27;20031;-74
2022/07/03 03:08:01;;;;;;;2.78;1.33;;;;;;;;;;5136236;27;20138;-74
2022/07/03 03:10:27;;;;;;;4.85;1.50;;;;;;;;;;5135015;27;20046;-73
2022/07/03 03:13:06;;;;;;;2.95;1.30;;;;;;;;;;5119113;27;20037;-74
2022/07/03 03:15:33;;;;;;;4.95;1.20;;;;;;;;;;5119219;27;20445;-73
2022/07/03 03:18:04;;;;;;;1.52;1.30;;;;;;;;;;5137343;27;20035;-74
2022/07/03 03:20:36;;;;;;;5.90;1.38;;;;;;;;;;5118956;27;20031;-74
2022/07/03 03:23:21;;;;;;;5.22;1.45;;;;;;;;;;5136149;27;20039;-73
2022/07/03 03:25:46;;;;;;;5.75;1.35;;;;;;;;;;5137384;27;20031;-74
2022/07/03 03:28:14;;;;;;;2.20;1.58;;;;;;;;;;5136371;27;20031;-73
2022/07/03 03:30:40;;;;;;;7.13;1.38;;;;;;;;;;5137310;27;20513;-73
2022/07/03 03:33:08;;;;;;;1.27;1.10;;;;;;;;;;5118963;27;20034;-74
2022/07/03 03:35:35;;;;;;;4.10;1.35;;;;;;;;;;5137339;27;20042;-73
2022/07/03 03:38:02;;;;;;;3.58;1.52;;;;;;;;;;5135821;27;20060;-73
2022/07/03 03:40:28;;;;;;;2.47;1.60;;;;;;;;;;5135876;27;20110;-74
2022/07/03 03:42:53;;;;;;;1.67;1.35;;;;;;;;;;5118442;27;20126;-74
2022/07/03 03:45:19;;;;;;;7.05;1.70;;;;;;;;;;5135980;27;20066;-73
2022/07/03 03:47:45;;;;;;;6.97;1.60;;;;;;;;;;5135261;27;20027;-73
2022/07/03 03:50:10;;;;;;;2.38;1.48;;;;;;;;;;5135695;27;20031;-73
2022/07/03 03:52:36;;;;;;;5.80;1.67;;;;;;;;;;5116632;27;20046;-73
2022/07/03 03:55:02;;;;;;;5.10;1.60;;;;;;;;;;5118810;27;20476;-73
2022/07/03 03:57:28;;;;;;;3.80;1.25;;;;;;;;;;5135813;27;20536;-73
2022/07/03 03:59:55;;;;;;;4.03;1.38;;;;;;;;;;5135711;27;20031;-73
2022/07/03 04:02:20;;;;;;;5.60;1.80;;;;;;;;;;5136692;27;20035;-74
2022/07/03 04:04:47;;;;;;;4.97;1.42;;;;;;;;;;5117884;27;20098;-74
2022/07/03 04:07:13;;;;;;;4.10;1.60;;;;;;;;;;5118320;27;20031;-74
2022/07/03 04:09:39;;;;;;;1.40;1.30;;;;;;;;;;5117811;27;20377;-74
2022/07/03 04:12:05;;;;;;;1.40;1.30;;;;;;;;;;5117950;27;20403;-74
2022/07/03 04:14:31;;;;;;;1.40;1.30;;;;;;;;;;5117966;27;20038;-74
2022/07/03 04:16:57;;;;;;;2.40;1.70;;;;;;;;;;5118228;27;20397;-74
2022/07/03 04:19:23;;;;;;;1.80;1.27;;;;;;;;;;5117963;27;20122;-74
2022/07/03 04:21:51;;;;;;;4.03;1.60;;;;;;;;;;5134631;27;20203;-74
2022/07/03 04:24:17;;;;;;;2.97;1.38;;;;;;;;;;5136214;27;20039;-74
2022/07/03 04:26:43;;;;;;;2.45;1.65;;;;;;;;;;5134912;27;20134;-74
2022/07/03 04:29:08;;;;;;;2.28;1.35;;;;;;;;;;5135633;27;20475;-74
2022/07/03 04:31:34;;;;;;;4.60;1.50;;;;;;;;;;5133239;27;20030;-73
2022/07/03 04:33:59;;;;;;;2.38;1.90;;;;;;;;;;5135055;27;20119;-74
2022/07/03 04:36:25;;;;;;;1.27;1.17;;;;;;;;;;5135505;27;20045;-74
2022/07/03 04:38:50;;;;;;;4.28;1.55;;;;;;;;;;5134705;27;20130;-74
2022/07/03 04:41:16;;;;;;;3.00;1.63;;;;;;;;;;5134325;27;20107;-74
2022/07/03 04:43:41;;;;;;;2.30;1.30;;;;;;;;;;5134216;27;20041;-74
2022/07/03 04:46:07;;;;;;;4.50;2.10;;;;;;;;;;5135286;27;20439;-74
2022/07/03 04:48:32;;;;;;;5.15;1.85;;;;;;;;;;5134694;27;20031;-74
2022/07/03 04:50:58;;;;;;;2.10;1.40;;;;;;;;;;5133923;27;20414;-75
2022/07/03 04:53:24;;;;;;;2.55;1.70;;;;;;;;;;5135576;27;20035;-74
2022/07/03 04:55:49;;;;;;;5.38;2.13;;;;;;;;;;5135749;27;20027;-74
2022/07/03 04:58:15;;;;;;;4.07;1.63;;;;;;;;;;5135076;27;20480;-74
2022/07/03 05:00:43;;;;;;;3.20;2.03;;;;;;;;;;5135331;27;20034;-74
2022/07/03 05:03:09;;;;;;;2.70;1.92;;;;;;;;;;5134313;27;20035;-74
2022/07/03 05:05:34;;;;;;;2.72;1.83;;;;;;;;;;5135456;27;20037;-74
2022/07/03 05:08:00;;;;;;;3.13;1.83;;;;;;;;;;5132653;27;20481;-74
2022/07/03 05:10:27;;;;;;;3.60;2.15;;;;;;;;;;5135019;27;20035;-74
2022/07/03 05:12:53;;;;;;;5.15;2.40;;;;;;;;;;5115499;27;20774;-74
2022/07/03 05:15:19;;;;;;;3.88;2.00;;;;;;;;;;5134940;27;20035;-74
2022/07/03 05:17:45;;;;;;;2.78;1.80;;;;;;;;;;5117323;27;20054;-74
2022/07/03 05:20:23;;;;;;;3.65;1.98;;;;;;;;;;5134010;27;20036;-73
2022/07/03 05:22:51;;;;;;;3.53;2.40;;;;;;;;;;5117030;27;20484;-74
2022/07/03 05:25:17;;;;;;;2.80;2.00;;;;;;;;;;5135031;27;20038;-74
2022/07/03 05:27:42;;;;;;;7.68;2.50;;;;;;;;;;5116522;27;20035;-75
2022/07/03 05:30:11;;;;;;;4.07;2.15;;;;;;;;;;5134612;27;20065;-74
2022/07/03 05:32:37;;;;;;;2.35;1.88;;;;;;;;;;5116729;27;20038;-74
2022/07/03 05:35:03;;;;;;;6.57;2.40;;;;;;;;;;5125649;27;20457;-74
2022/07/03 05:37:29;;;;;;;4.68;2.35;;;;;;;;;;5114231;28;20051;-75
2022/07/03 05:39:55;;;;;;;2.85;2.22;;;;;;;;;;5108388;27;20034;-75
2022/07/03 05:42:21;;;;;;;3.80;1.92;;;;;;;;;;5133830;27;20046;-74
2022/07/03 05:44:46;;;;;;;3.15;2.25;;;;;;;;;;5133514;27;20035;-75
2022/07/03 05:47:13;;;;;;;2.38;1.85;;;;;;;;;;5134496;27;20042;-74
2022/07/03 05:49:38;;;;;;;2.95;2.17;;;;;;;;;;5134686;27;20031;-77
2022/07/03 05:52:07;;;;;;;3.88;2.00;;;;;;;;;;5133833;27;20023;-78
2022/07/03 05:54:33;;;;;;;3.42;2.20;;;;;;;;;;5116633;27;20039;-75
2022/07/03 05:56:59;;;;;;;2.70;1.70;;;;;;;;;;5134867;27;20491;-77
2022/07/03 05:59:26;;;;;;;2.67;1.92;;;;;;;;;;5119747;27;20039;-86
2022/07/03 06:01:51;;;;;;;2.55;1.90;;;;;;;;;;5121525;27;20490;-79
2022/07/03 06:04:18;;;;;;;7.80;2.05;;;;;;;;;;5119609;27;20031;-81
2022/07/03 06:06:44;;;;;;;3.92;1.90;;;;;;;;;;5116756;27;20035;-77
2022/07/03 06:09:10;;;;;;;2.83;2.30;;;;;;;;;;5133515;27;20096;-76
2022/07/03 06:11:37;;;;;;;5.22;2.75;;;;;;;;;;5115915;27;20027;-77
2022/07/03 06:14:04;;;;;;;2.42;1.90;;;;;;;;;;5116336;27;20035;-77
2022/07/03 06:16:30;;;;;;;2.97;1.83;;;;;;;;;;5116078;27;20039;-76
2022/07/03 06:18:55;;;;;;;3.45;1.60;;;;;;;;;;5116111;27;20480;-76
2022/07/03 06:21:21;;;;;;;2.92;1.60;;;;;;;;;;5133146;27;20035;-76
2022/07/03 06:23:46;;;;;;;1.52;1.15;;;;;;;;;;5133921;27;20030;-77
2022/07/03 06:26:14;;;;;;;4.13;1.40;;;;;;;;;;5117019;27;20050;-78
2022/07/03 06:28:41;;;;;;;2.67;1.80;;;;;;;;;;5134985;27;20031;-78
2022/07/03 06:31:08;;;;;;;4.72;1.80;;;;;;;;;;5119292;27;20027;-79
2022/07/03 06:33:37;;;;;;;2.53;1.45;;;;;;;;;;5121675;27;20066;-80
2022/07/03 06:36:02;;;;;;;2.47;1.45;;;;;;;;;;5140946;27;20023;-78
2022/07/03 06:38:28;;;;;;;3.72;1.20;;;;;;;;;;5124974;27;20068;-79
2022/07/03 06:40:53;;;;;;;1.92;1.08;;;;;;;;;;5139815;28;20519;-78
2022/07/03 06:43:28;;;;;;;2.08;1.17;;;;;;;;;;5134840;28;20049;-77
2022/07/03 06:45:53;;;;;;;1.20;1.10;;;;;;;;;;5134345;27;20035;-77
2022/07/03 06:48:19;;;;;;;3.08;1.05;;;;;;;;;;5118288;27;20036;-77
2022/07/03 06:50:46;;;;;;;1.38;1.20;;;;;;;;;;5112450;28;20032;-79
2022/07/03 06:53:12;;;;;;;1.70;1.20;;;;;;;;;;5096204;28;20164;-77
2022/07/03 06:55:38;;;;;;;3.67;1.63;;;;;;;;;;5113147;28;20080;-78
2022/07/03 06:58:04;;;;;;;3.30;2.45;;;;;;;;;;5113796;28;20122;-78
2022/07/03 07:00:30;;;;;;;2.45;1.33;;;;;;;;;;5114718;28;20604;-78
2022/07/03 07:02:57;;;;;;;1.65;1.10;;;;;;;;;;5117950;28;20093;-79
2022/07/03 07:05:24;;;;;;;1.40;0.95;;;;;;;;;;5098004;28;20027;-79
2022/07/03 07:07:50;;;;;;;1.42;0.80;;;;;;;;;;5114742;28;20090;-78
2022/07/03 07:10:15;;;;;;;5.35;1.63;;;;;;;;;;5136929;28;20062;-79
2022/07/03 07:12:41;;;;;;;6.18;3.13;;;;;;;;;;5136967;27;20095;-79
2022/07/03 07:15:07;;;;;;;3.25;1.60;;;;;;;;;;5136102;27;20042;-80
2022/07/03 07:17:33;;;;;;;8.95;1.70;;;;;;;;;;5117683;28;20064;-78
2022/07/03 07:19:59;;;;;;;2.72;1.60;;;;;;;;;;5132462;27;20035;-77
2022/07/03 07:22:25;;;;;;;2.42;1.17;;;;;;;;;;5115479;28;20036;-77
2022/07/03 07:24:51;;;;;;;2.33;1.10;;;;;;;;;;5132535;28;20433;-77
2022/07/03 07:27:16;;;;;;;4.57;2.85;;;;;;;;;;5106635;28;20594;-77
2022/07/03 07:29:42;;;;;;;2.53;1.38;;;;;;;;;;5112180;28;20084;-78
2022/07/03 07:32:07;;;;;;;2.15;0.93;;;;;;;;;;5095778;28;20027;-78
2022/07/03 07:34:33;;;;;;;2.00;1.20;;;;;;;;;;5096183;28;20047;-80
2022/07/03 07:36:59;;;;;;;2.08;1.15;;;;;;;;;;5125477;27;20051;-78
2022/07/03 07:39:26;;;;;;;1.98;1.00;;;;;;;;;;5123523;27;20462;-81
2022/07/03 07:41:52;;;;;;;4.28;1.10;;;;;;;;;;5141015;27;20027;-82
2022/07/03 07:44:18;;;;;;;6.00;1.10;;;;;;;;;;5136267;27;20037;-79
2022/07/03 07:46:49;;;;;;;2.70;1.20;;;;;;;;;;5117846;27;20050;-76
2022/07/03 07:49:21;;;;;;;3.90;0.88;;;;;;;;;;5113955;28;20039;-74
2022/07/03 07:51:50;;;;;;;1.42;1.02;;;;;;;;;;5115280;28;20031;-74
2022/07/03 07:54:16;;;;;;;2.47;1.05;;;;;;;;;;5098480;28;20408;-78
2022/07/03 07:56:41;;;;;;;1.75;0.73;;;;;;;;;;5117162;28;20453;-79
2022/07/03 07:59:06;;;;;;;2.65;0.57;;;;;;;;;;5138576;27;20026;-77
2022/07/03 08:07:00;;;;;;;2.40;0.98;;;;;;;;;;5115506;27;20557;-80
2022/07/03 08:09:26;;;;;;;2.47;0.88;;;;;;;;;;5135161;27;20035;-79
2022/07/03 08:11:52;;;;;;;2.50;0.98;;;;;;;;;;5117725;27;20034;-79
2022/07/03 08:14:18;;;;;;;1.65;0.98;;;;;;;;;;5119576;27;20023;-79
2022/07/03 08:16:46;;;;;;;1.23;0.70;;;;;;;;;;5137507;27;20046;-78
2022/07/03 08:19:13;;;;;;;2.08;1.05;;;;;;;;;;5137411;27;20122;-79
2022/07/03 08:21:38;;;;;;;0.80;0.80;;;;;;;;;;5120875;27;20024;-80
2022/07/03 08:24:04;;;;;;;1.02;0.80;;;;;;;;;;5122288;27;20033;-79
2022/07/03 08:26:30;;;;;;;0.93;0.75;;;;;;;;;;5121713;27;20126;-80
2022/07/03 08:28:56;;;;;;;4.20;1.25;;;;;;;;;;5139545;27;20511;-82
2022/07/03 08:31:21;;;;;;;4.30;0.70;;;;;;;;;;5138809;27;20067;-79
2022/07/03 08:33:51;;;;;;;1.38;0.82;;;;;;;;;;5152327;27;20098;-80
2022/07/03 08:36:18;;;;;;;4.00;0.90;;;;;;;;;;5130017;27;20513;-81
2022/07/03 08:38:44;;;;;;;1.38;1.10;;;;;;;;;;5118467;28;20079;-78
2022/07/03 08:41:12;;;;;;;0.68;0.68;;;;;;;;;;5117085;28;20097;-80
2022/07/03 08:43:41;;;;;;;1.33;0.70;;;;;;;;;;5099666;28;20036;-77
2022/07/03 08:46:10;;;;;;;3.55;0.98;;;;;;;;;;5100545;28;20043;-79
2022/07/03 08:48:36;;;;;;;2.63;0.82;;;;;;;;;;5116424;28;20036;-77
2022/07/03 08:51:02;;;;;;;5.03;0.95;;;;;;;;;;5114658;28;20073;-77
2022/07/03 08:53:27;;;;;;;1.13;0.70;;;;;;;;;;5116810;28;20473;-81
2022/07/03 08:55:53;;;;;;;1.42;0.70;;;;;;;;;;5101909;27;20032;-81
2022/07/03 08:58:22;;;;;;;0.98;0.70;;;;;;;;;;5100629;28;20042;-82
2022/07/03 09:00:47;;;;;;;21.60;19.17;;;;;;;;;;5119090;27;20043;-80
2022/07/03 09:03:14;;;;;;;2.25;1.30;;;;;;;;;;5101799;28;20039;-80
2022/07/03 09:05:40;;;;;;;2.50;0.90;;;;;;;;;;5118086;27;20392;-80
2022/07/03 09:08:07;;;;;;;2.35;0.90;;;;;;;;;;5100125;28;20027;-80
2022/07/03 09:10:32;;;;;;;8.85;1.00;;;;;;;;;;5103125;28;20046;-80
2022/07/03 09:12:58;;;;;;;3.17;0.93;;;;;;;;;;5117898;28;20032;-79
2022/07/03 09:15:24;;;;;;;1.27;0.63;;;;;;;;;;5119891;28;20070;-84
2022/07/03 09:18:15;;;;;;;3.17;0.90;;;;;;;;;;5120247;28;20036;-82
2022/07/03 09:20:41;;;;;;;2.25;0.90;;;;;;;;;;5117812;28;20125;-82
2022/07/03 09:23:12;;;;;;;1.75;0.90;;;;;;;;;;5103669;28;20020;-82
2022/07/03 09:25:58;;;;;;;5.72;0.77;;;;;;;;;;5122632;28;20036;-86
2022/07/03 09:29:09;;;;;;;0.98;0.70;;;;;;;;;;5096980;28;20038;-85
2022/07/03 09:31:35;;;;;;;6.72;0.90;;;;;;;;;;5117356;28;20054;-81
2022/07/03 09:34:07;;;;;;;1.40;0.82;;;;;;;;;;5132142;27;20074;-81
2022/07/03 09:36:43;;;;;;;2.13;1.08;;;;;;;;;;5138227;27;20050;-81
2022/07/03 09:39:25;;;;;;;1.90;0.90;;;;;;;;;;5120968;27;20042;-81
2022/07/03 09:41:58;;;;;;;3.65;0.77;;;;;;;;;;5138250;27;20031;-80
2022/07/03 09:44:40;;;;;;;1.75;1.15;;;;;;;;;;5121311;27;21389;-81
2022/07/03 09:47:08;;;;;;;1.95;0.77;;;;;;;;;;5124262;27;20051;-81
2022/07/03 09:49:51;;;;;;;3.30;0.82;;;;;;;;;;5120626;27;20511;-81
2022/07/03 09:52:37;;;;;;;0.90;0.70;;;;;;;;;;5120277;27;20042;-81
2022/07/03 09:55:09;;;;;;;2.50;0.88;;;;;;;;;;5123367;27;20046;-83
2022/07/03 09:57:51;;;;;;;;;;;;;;;;;;5118612;28;20038;-81
2022/07/03 10:00:23;;;;;;;6.65;0.75;;;;;;;;;;5116070;28;20369;-85
2022/07/03 10:02:58;;;;;;;2.75;0.73;;;;;;;;;;5117908;28;20031;-82
2022/07/03 10:05:30;;;;;;;1.55;0.65;;;;;;;;;;5100439;28;20032;-81
2022/07/03 10:08:02;;;;;;;2.22;0.90;;;;;;;;;;5099260;28;20035;-83
2022/07/03 10:10:33;;;;;;;7.35;0.73;;;;;;;;;;5117641;27;20037;-84
2022/07/03 10:13:02;;;;;;;1.00;0.77;;;;;;;;;;5118038;28;20027;-84
2022/07/03 10:15:30;;;;;;;5.78;1.15;;;;;;;;;;5117490;28;20039;-83
2022/07/03 10:17:58;;;;;;;2.10;1.15;;;;;;;;;;5117393;28;20083;-82
2022/07/03 10:20:28;;;;;;;4.13;0.60;;;;;;;;;;5099266;28;20575;-84
2022/07/03 10:22:57;;;;;;;2.03;0.68;;;;;;;;;;5105719;28;20031;-84
2022/07/03 10:25:23;;;;;;;3.67;0.98;;;;;;;;;;5120765;27;20031;-82
2022/07/03 10:27:49;;;;;;;5.97;0.82;;;;;;;;;;5133018;27;20035;-84
2022/07/03 10:30:21;;;;;;;6.55;0.85;;;;;;;;;;5119711;28;20031;-84
2022/07/03 10:32:51;;;;;;;2.67;0.55;;;;;;;;;;5101761;28;20031;-82
2022/07/03 10:35:28;;;;;;;1.45;0.70;;;;;;;;;;5136909;27;20039;-84
2022/07/03 10:38:00;;;;;;;6.13;0.90;;;;;;;;;;5120196;28;20080;-84
2022/07/03 10:46:33;;;;;;;4.10;0.57;;;;;;;;;;5136486;28;20031;-82
2022/07/03 10:49:10;;;;;;;1.52;0.82;;;;;;;;;;5119255;28;20107;-80
2022/07/03 10:51:41;;;;;;;2.47;0.90;;;;;;;;;;5144129;27;20080;-81
2022/07/03 10:54:26;;;;;;;2.60;0.80;;;;;;;;;;5128893;28;20041;-80
2022/07/03 10:57:01;;;;;;;3.75;1.05;;;;;;;;;;5127574;28;20042;-80
2022/07/03 10:59:31;;;;;;;5.13;0.77;;;;;;;;;;5118635;28;20439;-81
2022/07/03 11:02:34;;;;;;;7.45;1.05;;;;;;;;;;5116899;28;20484;-79
2022/07/03 11:04:59;;;;;;;1.85;0.80;;;;;;;;;;5105522;28;20117;-81
2022/07/03 11:07:32;;;;;;;3.55;0.85;;;;;;;;;;5119354;28;20063;-80
2022/07/03 11:10:13;;;;;;;1.52;0.80;;;;;;;;;;5118759;27;20171;-80
2022/07/03 11:13:01;;;;;;;2.03;0.68;;;;;;;;;;5140014;27;20070;-80
2022/07/03 11:15:37;;;;;;;1.73;0.82;;;;;;;;;;5139188;27;20031;-85
2022/07/03 11:18:14;;;;;;;1.85;0.68;;;;;;;;;;5139536;27;20035;-85
2022/07/03 11:20:43;;;;;;;3.00;0.60;;;;;;;;;;5122635;27;20058;-86
2022/07/03 11:23:27;;;;;;;1.02;0.55;;;;;;;;;;5140512;27;20031;-80
2022/07/03 11:26:08;;;;;;;2.60;0.77;;;;;;;;;;5120364;27;20035;-76
2022/07/03 11:28:33;;;;;;;2.05;0.98;;;;;;;;;;5138167;27;20533;-80
2022/07/03 11:31:13;;;;;;;1.95;0.77;;;;;;;;;;5120185;27;20035;-77
2022/07/03 11:33:56;;;;;;;1.70;1.00;;;;;;;;;;5137976;27;20035;-77
2022/07/03 11:36:21;;;;;;;6.75;0.93;;;;;;;;;;5136063;27;20115;-76
2022/07/03 11:38:48;;;;;;;1.55;0.68;;;;;;;;;;5117327;27;20619;-76
2022/07/03 11:41:16;;;;;;;2.10;0.80;;;;;;;;;;5136761;27;20365;-76
2022/07/03 11:43:48;;;;;;;1.85;0.60;;;;;;;;;;5136268;27;20039;-76
2022/07/03 11:46:22;;;;;;;3.25;0.77;;;;;;;;;;5118976;27;20118;-77
2022/07/03 11:48:48;;;;;;;2.83;0.93;;;;;;;;;;5138886;27;20031;-80
2022/07/03 11:51:14;;;;;;;4.90;0.70;;;;;;;;;;5120566;27;20492;-79
2022/07/03 11:53:40;;;;;;;5.10;0.88;;;;;;;;;;5138901;27;20039;-80
2022/07/03 11:56:08;;;;;;;1.35;0.70;;;;;;;;;;5121845;27;20500;-78
2022/07/03 11:58:48;;;;;;;3.63;0.82;;;;;;;;;;5140159;27;20388;-82
2022/07/03 12:01:26;;;;;;;3.45;0.70;;;;;;;;;;5140522;27;20074;-81
2022/07/03 12:03:52;;;;;;;1.92;1.00;;;;;;;;;;5123787;27;20408;-81
2022/07/03 12:06:19;;;;;;;2.95;0.80;;;;;;;;;;5121306;27;20531;-78
2022/07/03 12:08:47;;;;;;;3.70;0.80;;;;;;;;;;5142591;27;20035;-78
2022/07/03 12:11:16;;;;;;;4.85;0.82;;;;;;;;;;5126909;27;20039;-78
2022/07/03 12:13:43;;;;;;;7.30;1.10;;;;;;;;;;5126828;27;20034;-78
2022/07/03 12:16:11;;;;;;;10.43;1.00;;;;;;;;;;5126833;27;20095;-78
2022/07/03 12:18:51;;;;;;;4.72;0.90;;;;;;;;;;5143629;27;20027;-78
2022/07/03 12:21:38;;;;;;;7.22;1.42;;;;;;;;;;5127180;27;20031;-78
2022/07/03 12:24:14;;;;;;;4.18;0.90;;;;;;;;;;5145871;27;20031;-78
2022/07/03 12:26:40;;;;;;;4.45;0.75;;;;;;;;;;5126235;27;20095;-78
2022/07/03 12:29:08;;;;;;;2.15;0.77;;;;;;;;;;5143492;27;20027;-78
2022/07/03 12:31:34;;;;;;;3.08;0.80;;;;;;;;;;5143570;27;20044;-79
2022/07/03 12:34:01;;;;;;;1.55;0.60;;;;;;;;;;5126594;27;20039;-79
2022/07/03 12:36:27;;;;;;;6.88;0.82;;;;;;;;;;5137611;27;20039;-78
2022/07/03 12:38:55;;;;;;;2.67;0.75;;;;;;;;;;5121846;28;20040;-78
2022/07/03 12:41:22;;;;;;;3.97;0.70;;;;;;;;;;5103764;28;20032;-78
2022/07/03 12:43:49;;;;;;;2.45;0.68;;;;;;;;;;5103915;28;20031;-78
2022/07/03 12:46:17;;;;;;;1.17;0.63;;;;;;;;;;5121748;28;20040;-78
2022/07/03 12:48:49;;;;;;;1.88;0.55;;;;;;;;;;5120408;28;20043;-78
2022/07/03 12:51:15;;;;;;;1.73;0.85;;;;;;;;;;5121792;28;20031;-78
2022/07/03 12:53:42;;;;;;;4.40;0.63;;;;;;;;;;5121668;28;20534;-78
2022/07/03 12:56:09;;;;;;;4.35;0.70;;;;;;;;;;5103918;28;20027;-78
2022/07/03 13:01:29;;;;;;;1.08;0.75;;;;;;;;;;5121199;28;20032;-78
2022/07/03 13:03:55;;;;;;;3.27;0.60;;;;;;;;;;5103703;28;20024;-78
2022/07/03 13:06:22;;;;;;;4.80;0.88;;;;;;;;;;5129668;27;20272;-78
2022/07/03 13:09:01;;;;;;;1.48;0.70;;;;;;;;;;5124151;27;20080;-78
2022/07/03 13:11:40;;;;;;;1.15;0.70;;;;;;;;;;5140289;27;20034;-78
2022/07/03 13:14:16;;;;;;;0.50;0.50;;;;;;;;;;5139937;27;20055;-78
2022/07/03 13:16:44;;;;;;;2.22;0.80;;;;;;;;;;5123758;27;20031;-78
2022/07/03 13:19:12;;;;;;;4.03;0.70;;;;;;;;;;5123195;27;20539;-78
2022/07/03 13:21:40;;;;;;;1.88;0.85;;;;;;;;;;5141102;27;20472;-78
2022/07/03 13:24:07;;;;;;;0.88;0.57;;;;;;;;;;5121976;27;20495;-78
2022/07/03 13:26:33;;;;;;;5.97;0.73;;;;;;;;;;5140972;27;20119;-78
2022/07/03 13:29:00;;;;;;;1.73;0.77;;;;;;;;;;5122263;27;20031;-78
2022/07/03 13:31:26;;;;;;;3.75;0.80;;;;;;;;;;5139767;27;20035;-78
2022/07/03 13:33:52;;;;;;;2.00;0.88;;;;;;;;;;5121237;27;20042;-78
2022/07/03 13:36:18;;;;;;;2.55;0.60;;;;;;;;;;5138871;27;20031;-78
2022/07/03 13:38:45;;;;;;;3.42;1.35;;;;;;;;;;5119782;27;20134;-78
2022/07/03 13:41:11;;;;;;;4.95;0.68;;;;;;;;;;5138187;27;20472;-78
2022/07/03 13:43:36;;;;;;;4.13;1.02;;;;;;;;;;5121049;27;20038;-78
2022/07/03 13:46:02;;;;;;;1.75;0.55;;;;;;;;;;5139889;27;20430;-78
2022/07/03 13:48:28;;;;;;;1.58;0.60;;;;;;;;;;5140861;27;20035;-78
2022/07/03 13:50:54;;;;;;;1.05;0.73;;;;;;;;;;5139868;27;20032;-78
2022/07/03 13:53:19;;;;;;;2.05;0.60;;;;;;;;;;5140644;27;20041;-78
2022/07/03 13:55:45;;;;;;;1.73;0.75;;;;;;;;;;5139065;27;20039;-78
2022/07/03 13:58:10;;;;;;;3.63;0.80;;;;;;;;;;5134919;27;20031;-78
2022/07/03 14:00:35;;;;;;;1.88;0.68;;;;;;;;;;5117737;27;20031;-78
2022/07/03 14:03:01;;;;;;;3.05;0.85;;;;;;;;;;5134780;27;20038;-78
2022/07/03 14:05:28;;;;;;;1.27;0.70;;;;;;;;;;5118689;27;20106;-78
2022/07/03 14:07:54;;;;;;;3.95;0.75;;;;;;;;;;5115292;28;20545;-79
2022/07/03 14:10:21;;;;;;;4.07;0.43;;;;;;;;;;5121642;27;20066;-78
2022/07/03 14:12:48;;;;;;;1.35;0.90;;;;;;;;;;5116649;27;20093;-78
2022/07/03 14:15:14;;;;;;;3.88;1.10;;;;;;;;;;5116499;27;20031;-78
2022/07/03 14:17:40;;;;;;;2.50;0.68;;;;;;;;;;5136313;27;20074;-78
2022/07/03 14:20:07;;;;;;;2.13;0.68;;;;;;;;;;5118200;27;20041;-78
2022/07/03 14:22:32;;;;;;;1.77;0.80;;;;;;;;;;5135127;27;20027;-80
2022/07/03 14:24:58;;;;;;;1.25;0.50;;;;;;;;;;5130031;27;20471;-77
2022/07/03 14:32:53;;;;;;;3.22;0.95;;;;;;;;;;5127430;27;20028;-77
2022/07/03 14:35:19;;;;;;;1.20;0.60;;;;;;;;;;5100946;27;20118;-77
2022/07/03 14:37:44;;;;;;;1.52;0.45;;;;;;;;;;5122183;27;20524;-77
2022/07/03 14:40:14;;;;;;;2.00;0.77;;;;;;;;;;5132507;27;20103;-77
2022/07/03 14:42:41;;;;;;;1.05;0.65;;;;;;;;;;5109520;28;20039;-77
2022/07/03 14:45:07;;;;;;;2.63;0.80;;;;;;;;;;5129204;27;20426;-77
2022/07/03 14:47:33;;;;;;;0.98;0.70;;;;;;;;;;5118205;28;20130;-78
2022/07/03 14:49:58;;;;;;;3.20;0.80;;;;;;;;;;5135717;27;20074;-75
2022/07/03 14:52:24;;;;;;;4.95;0.80;;;;;;;;;;5121788;27;20077;-76
2022/07/03 14:54:52;;;;;;;2.22;0.95;;;;;;;;;;5101963;28;20032;-76
2022/07/03 14:57:20;;;;;;;2.03;0.70;;;;;;;;;;5118589;28;20404;-76
2022/07/03 15:00:03;;;;;;;1.67;0.52;;;;;;;;;;5120147;27;20106;-76
2022/07/03 15:02:44;;;;;;;3.58;0.90;;;;;;;;;;5101829;28;20028;-76
2022/07/03 15:05:12;;;;;;;2.85;0.75;;;;;;;;;;5118255;28;20417;-76
2022/07/03 15:07:57;;;;;;;4.40;0.80;;;;;;;;;;5137629;27;20101;-77
2022/07/03 15:10:24;;;;;;;3.85;1.00;;;;;;;;;;5102248;28;20023;-77
2022/07/03 15:12:53;;;;;;;1.50;0.80;;;;;;;;;;5101826;28;20039;-76
2022/07/03 15:15:22;;;;;;;2.33;0.80;;;;;;;;;;5119436;28;20039;-75
2022/07/03 15:17:50;;;;;;;6.90;1.00;;;;;;;;;;5118691;28;20031;-76